SAS2SL ESGG-EFHK
Flight info
| Callsign | SAS2SL |
|---|---|
| Flight time | 1h 6m |
| Altitude | 33000 |
| Route | LABAN N873 DETSO DCT TUSNI DCT RIRIP Y364 LAKUT |
| Aircraft | A320/M-SDE3FGHIRWY/LB1 |
Departure
| Time | 2026-05-07 17:57 |
|---|---|
| Airport | Göteborg Landvetter Airport (ESGG) |
Arrival
| Time | 2026-05-07 19:04 |
|---|---|
| Airport | Helsinki Vantaa Airport (EFHK) |
| Time | Latitude | Longitude | Altitude | Speed | Heading |
|---|---|---|---|---|---|
| 2026-05-07 17:25 | 57.66728 | 12.29268 | 516 ft | 0 kts | 116° |
| 2026-05-07 17:47 | 57.66728 | 12.29266 | 516 ft | 1 kts | 116° |
| 2026-05-07 17:47 | 57.66730 | 12.29258 | 516 ft | 1 kts | 116° |
| 2026-05-07 17:47 | 57.66735 | 12.29241 | 516 ft | 2 kts | 116° |
| 2026-05-07 17:48 | 57.66741 | 12.29219 | 516 ft | 2 kts | 116° |
| 2026-05-07 17:48 | 57.66746 | 12.29198 | 516 ft | 2 kts | 116° |
| 2026-05-07 17:48 | 57.66752 | 12.29174 | 516 ft | 2 kts | 113° |
| 2026-05-07 17:48 | 57.66755 | 12.29148 | 516 ft | 2 kts | 68° |
| 2026-05-07 17:49 | 57.66750 | 12.29130 | 516 ft | 0 kts | 25° |
| 2026-05-07 17:51 | 57.66751 | 12.29130 | 516 ft | 0 kts | 25° |
| 2026-05-07 17:51 | 57.66765 | 12.29120 | 516 ft | 5 kts | 326° |
| 2026-05-07 17:52 | 57.66789 | 12.29042 | 516 ft | 9 kts | 297° |
| 2026-05-07 17:52 | 57.66818 | 12.28938 | 516 ft | 8 kts | 296° |
| 2026-05-07 17:52 | 57.66865 | 12.28860 | 513 ft | 12 kts | 1° |
| 2026-05-07 17:52 | 57.66943 | 12.28925 | 514 ft | 13 kts | 26° |
| 2026-05-07 17:53 | 57.67005 | 12.28982 | 514 ft | 8 kts | 26° |
| 2026-05-07 17:53 | 57.67063 | 12.29034 | 514 ft | 10 kts | 26° |
| 2026-05-07 17:53 | 57.67107 | 12.29074 | 514 ft | 10 kts | 26° |
| 2026-05-07 17:53 | 57.67155 | 12.29117 | 514 ft | 3 kts | 25° |
| 2026-05-07 17:54 | 57.67169 | 12.29129 | 514 ft | 4 kts | 25° |
| 2026-05-07 17:54 | 57.67193 | 12.29151 | 514 ft | 3 kts | 25° |
| 2026-05-07 17:54 | 57.67237 | 12.29191 | 515 ft | 8 kts | 26° |
| 2026-05-07 17:54 | 57.67291 | 12.29241 | 515 ft | 9 kts | 26° |
| 2026-05-07 17:55 | 57.67327 | 12.29274 | 515 ft | 6 kts | 26° |
| 2026-05-07 17:55 | 57.67366 | 12.29310 | 515 ft | 2 kts | 26° |
| 2026-05-07 17:55 | 57.67378 | 12.29321 | 515 ft | 2 kts | 26° |
| 2026-05-07 17:55 | 57.67398 | 12.29340 | 515 ft | 4 kts | 26° |
| 2026-05-07 17:56 | 57.67432 | 12.29348 | 515 ft | 6 kts | 351° |
| 2026-05-07 17:56 | 57.67460 | 12.29270 | 515 ft | 12 kts | 276° |
| 2026-05-07 17:56 | 57.67443 | 12.29088 | 515 ft | 15 kts | 244° |
| 2026-05-07 17:56 | 57.67353 | 12.28954 | 515 ft | 23 kts | 206° |
| 2026-05-07 17:57 | 57.67016 | 12.28647 | 514 ft | 87 kts | 206° |
| 2026-05-07 17:57 | 57.66302 | 12.28000 | 510 ft | 139 kts | 206° |
| 2026-05-07 17:57 | 57.65315 | 12.27103 | 661 ft | 165 kts | 210° |
| 2026-05-07 17:57 | 57.64302 | 12.26145 | 1336 ft | 163 kts | 208° |
| 2026-05-07 17:58 | 57.63259 | 12.25219 | 1899 ft | 169 kts | 204° |
| 2026-05-07 17:58 | 57.62058 | 12.25052 | 2178 ft | 188 kts | 162° |
| 2026-05-07 17:58 | 57.60770 | 12.26049 | 2415 ft | 212 kts | 156° |
| 2026-05-07 17:58 | 57.59373 | 12.27180 | 3000 ft | 220 kts | 156° |
| 2026-05-07 17:59 | 57.57982 | 12.28347 | 3841 ft | 219 kts | 149° |
| 2026-05-07 17:59 | 57.56965 | 12.30404 | 4623 ft | 219 kts | 112° |
| 2026-05-07 17:59 | 57.56786 | 12.33265 | 5061 ft | 241 kts | 77° |
| 2026-05-07 17:59 | 57.57348 | 12.36360 | 5521 ft | 260 kts | 70° |
| 2026-05-07 18:00 | 57.58035 | 12.39542 | 6276 ft | 268 kts | 69° |
| 2026-05-07 18:00 | 57.58757 | 12.42791 | 7072 ft | 273 kts | 69° |
| 2026-05-07 18:00 | 57.59489 | 12.46098 | 7794 ft | 280 kts | 68° |
| 2026-05-07 18:00 | 57.60230 | 12.49498 | 8560 ft | 285 kts | 68° |
| 2026-05-07 18:01 | 57.60973 | 12.52955 | 9363 ft | 289 kts | 68° |
| 2026-05-07 18:01 | 57.61806 | 12.56401 | 10088 ft | 294 kts | 58° |
| 2026-05-07 18:01 | 57.63056 | 12.59438 | 10671 ft | 302 kts | 44° |
| 2026-05-07 18:01 | 57.64654 | 12.62197 | 10854 ft | 324 kts | 43° |
| 2026-05-07 18:02 | 57.67680 | 12.68847 | 11893 ft | 342 kts | 51° |
| 2026-05-07 18:02 | 57.69126 | 12.72400 | 12574 ft | 346 kts | 51° |
| 2026-05-07 18:02 | 57.70576 | 12.75961 | 13244 ft | 349 kts | 51° |
| 2026-05-07 18:03 | 57.72072 | 12.79568 | 13915 ft | 353 kts | 50° |
| 2026-05-07 18:03 | 57.73609 | 12.83197 | 14515 ft | 357 kts | 50° |
| 2026-05-07 18:03 | 57.75170 | 12.86834 | 15102 ft | 360 kts | 49° |
| 2026-05-07 18:03 | 57.76755 | 12.90496 | 15678 ft | 363 kts | 49° |
| 2026-05-07 18:04 | 57.78360 | 12.94185 | 16241 ft | 367 kts | 49° |
| 2026-05-07 18:04 | 57.79982 | 12.97913 | 16804 ft | 370 kts | 49° |
| 2026-05-07 18:04 | 57.81619 | 13.01683 | 17382 ft | 374 kts | 49° |
| 2026-05-07 18:04 | 57.83264 | 13.05489 | 17948 ft | 378 kts | 49° |
| 2026-05-07 18:05 | 57.84930 | 13.09355 | 18499 ft | 382 kts | 49° |
| 2026-05-07 18:05 | 57.86611 | 13.13262 | 19001 ft | 386 kts | 49° |
| 2026-05-07 18:05 | 57.88282 | 13.17153 | 19511 ft | 389 kts | 49° |
| 2026-05-07 18:05 | 57.89984 | 13.21127 | 20030 ft | 393 kts | 49° |
| 2026-05-07 18:06 | 57.91706 | 13.25162 | 20564 ft | 396 kts | 49° |
| 2026-05-07 18:06 | 57.93434 | 13.29227 | 21071 ft | 400 kts | 49° |
| 2026-05-07 18:06 | 57.95179 | 13.33341 | 21571 ft | 403 kts | 49° |
| 2026-05-07 18:06 | 57.96939 | 13.37490 | 22059 ft | 406 kts | 49° |
| 2026-05-07 18:07 | 57.98713 | 13.41670 | 22552 ft | 410 kts | 49° |
| 2026-05-07 18:07 | 58.00477 | 13.45836 | 23047 ft | 413 kts | 49° |
| 2026-05-07 18:07 | 58.02276 | 13.50095 | 23523 ft | 417 kts | 49° |
| 2026-05-07 18:07 | 58.04089 | 13.54394 | 23946 ft | 420 kts | 49° |
| 2026-05-07 18:08 | 58.05915 | 13.58728 | 24349 ft | 423 kts | 49° |
| 2026-05-07 18:08 | 58.07752 | 13.63097 | 24758 ft | 425 kts | 49° |
| 2026-05-07 18:08 | 58.09593 | 13.67482 | 25166 ft | 427 kts | 49° |
| 2026-05-07 18:08 | 58.11448 | 13.71914 | 25563 ft | 429 kts | 49° |
| 2026-05-07 18:09 | 58.13303 | 13.76358 | 25951 ft | 431 kts | 49° |
| 2026-05-07 18:09 | 58.15168 | 13.80831 | 26337 ft | 434 kts | 49° |
| 2026-05-07 18:09 | 58.17040 | 13.85325 | 26709 ft | 436 kts | 49° |
| 2026-05-07 18:09 | 58.18923 | 13.89850 | 27075 ft | 438 kts | 49° |
| 2026-05-07 18:10 | 58.20787 | 13.94339 | 27434 ft | 440 kts | 49° |
| 2026-05-07 18:10 | 58.22683 | 13.98910 | 27794 ft | 442 kts | 49° |
| 2026-05-07 18:10 | 58.24591 | 14.03513 | 28154 ft | 444 kts | 49° |
| 2026-05-07 18:10 | 58.26506 | 14.08148 | 28510 ft | 447 kts | 48° |
| 2026-05-07 18:11 | 58.28431 | 14.12821 | 28823 ft | 450 kts | 48° |
| 2026-05-07 18:11 | 58.29712 | 14.15935 | 29050 ft | 452 kts | 48° |
| 2026-05-07 18:11 | 58.32304 | 14.22261 | 29503 ft | 455 kts | 49° |
| 2026-05-07 18:11 | 58.34252 | 14.27033 | 29845 ft | 457 kts | 49° |
| 2026-05-07 18:12 | 58.36210 | 14.31834 | 30168 ft | 459 kts | 49° |
| 2026-05-07 18:12 | 58.38145 | 14.36593 | 30453 ft | 461 kts | 49° |
| 2026-05-07 18:12 | 58.40105 | 14.41422 | 30849 ft | 459 kts | 49° |
| 2026-05-07 18:12 | 58.42059 | 14.46241 | 31272 ft | 458 kts | 49° |
| 2026-05-07 18:13 | 58.44005 | 14.51040 | 31712 ft | 456 kts | 49° |
| 2026-05-07 18:13 | 58.45943 | 14.55827 | 32151 ft | 454 kts | 49° |
| 2026-05-07 18:13 | 58.47870 | 14.60599 | 32585 ft | 452 kts | 49° |
| 2026-05-07 18:13 | 58.49789 | 14.65364 | 32984 ft | 452 kts | 48° |
| 2026-05-07 18:14 | 58.51713 | 14.70149 | 33104 ft | 451 kts | 48° |
| 2026-05-07 18:14 | 58.55486 | 14.79581 | 33113 ft | 448 kts | 48° |
| 2026-05-07 18:15 | 58.59271 | 14.89086 | 33114 ft | 447 kts | 49° |
| 2026-05-07 18:15 | 58.63045 | 14.98572 | 33117 ft | 447 kts | 48° |
| 2026-05-07 18:16 | 58.66827 | 15.08104 | 33120 ft | 447 kts | 49° |
| 2026-05-07 18:16 | 58.70559 | 15.17590 | 33119 ft | 447 kts | 49° |
| 2026-05-07 18:17 | 58.74316 | 15.27155 | 33121 ft | 448 kts | 48° |
| 2026-05-07 18:17 | 58.78084 | 15.36771 | 33110 ft | 450 kts | 48° |
| 2026-05-07 18:18 | 58.81842 | 15.46422 | 33107 ft | 450 kts | 48° |
| 2026-05-07 18:18 | 58.85575 | 15.56070 | 33107 ft | 451 kts | 48° |
| 2026-05-07 18:19 | 58.89332 | 15.65806 | 33114 ft | 452 kts | 48° |
| 2026-05-07 18:19 | 58.93088 | 15.75568 | 33145 ft | 452 kts | 48° |
| 2026-05-07 18:20 | 58.96849 | 15.85375 | 33124 ft | 453 kts | 48° |
| 2026-05-07 18:20 | 59.00586 | 15.95162 | 33116 ft | 454 kts | 48° |
| 2026-05-07 18:21 | 59.04339 | 16.05042 | 33120 ft | 455 kts | 48° |
| 2026-05-07 18:21 | 59.08099 | 16.14970 | 33121 ft | 455 kts | 48° |
| 2026-05-07 18:22 | 59.11849 | 16.24930 | 33125 ft | 456 kts | 49° |
| 2026-05-07 18:22 | 59.15565 | 16.34838 | 33160 ft | 456 kts | 48° |
| 2026-05-07 18:23 | 59.19326 | 16.44900 | 33125 ft | 458 kts | 48° |
| 2026-05-07 18:23 | 59.23058 | 16.54938 | 33117 ft | 459 kts | 48° |
| 2026-05-07 18:24 | 59.26804 | 16.65055 | 33122 ft | 459 kts | 49° |
| 2026-05-07 18:24 | 59.30513 | 16.75131 | 33125 ft | 459 kts | 49° |
| 2026-05-07 18:25 | 59.33835 | 16.85911 | 33125 ft | 468 kts | 63° |
| 2026-05-07 18:25 | 59.36324 | 16.97748 | 33161 ft | 470 kts | 63° |
| 2026-05-07 18:26 | 59.38826 | 17.09633 | 33141 ft | 471 kts | 63° |
| 2026-05-07 18:26 | 59.41304 | 17.21482 | 33133 ft | 471 kts | 63° |
| 2026-05-07 18:27 | 59.43782 | 17.33436 | 33133 ft | 472 kts | 63° |
| 2026-05-07 18:27 | 59.46244 | 17.45392 | 33137 ft | 472 kts | 63° |
| 2026-05-07 18:28 | 59.48688 | 17.57305 | 33132 ft | 472 kts | 63° |
| 2026-05-07 18:28 | 59.51134 | 17.69323 | 33142 ft | 472 kts | 63° |
| 2026-05-07 18:29 | 59.53576 | 17.81362 | 33158 ft | 472 kts | 64° |
| 2026-05-07 18:29 | 59.55997 | 17.93374 | 33171 ft | 475 kts | 64° |
| 2026-05-07 18:30 | 59.58424 | 18.05509 | 33157 ft | 476 kts | 64° |
| 2026-05-07 18:30 | 59.60847 | 18.17708 | 33150 ft | 477 kts | 64° |
| 2026-05-07 18:31 | 59.63259 | 18.29945 | 33159 ft | 478 kts | 64° |
| 2026-05-07 18:31 | 59.65664 | 18.42197 | 33160 ft | 478 kts | 64° |
| 2026-05-07 18:32 | 59.68065 | 18.54468 | 33165 ft | 478 kts | 64° |
| 2026-05-07 18:32 | 59.70460 | 18.66754 | 33156 ft | 478 kts | 65° |
| 2026-05-07 18:33 | 59.72826 | 18.79021 | 33182 ft | 480 kts | 65° |
| 2026-05-07 18:33 | 59.75192 | 18.91411 | 33169 ft | 481 kts | 65° |
| 2026-05-07 18:34 | 59.77555 | 19.03840 | 33170 ft | 481 kts | 65° |
| 2026-05-07 18:34 | 59.79922 | 19.16318 | 33175 ft | 482 kts | 65° |
| 2026-05-07 18:35 | 59.82273 | 19.28809 | 33181 ft | 482 kts | 65° |
| 2026-05-07 18:35 | 59.84607 | 19.41328 | 33183 ft | 482 kts | 65° |
| 2026-05-07 18:36 | 59.86924 | 19.53850 | 33185 ft | 482 kts | 66° |
| 2026-05-07 18:36 | 59.89229 | 19.66347 | 33175 ft | 483 kts | 66° |
| 2026-05-07 18:37 | 59.91540 | 19.78939 | 33158 ft | 484 kts | 66° |
| 2026-05-07 18:37 | 59.93835 | 19.91573 | 33159 ft | 485 kts | 66° |
| 2026-05-07 18:38 | 59.96130 | 20.04260 | 33165 ft | 485 kts | 66° |
| 2026-05-07 18:38 | 59.98396 | 20.16882 | 33172 ft | 486 kts | 66° |
| 2026-05-07 18:39 | 60.00662 | 20.29602 | 33179 ft | 486 kts | 66° |
| 2026-05-07 18:39 | 60.02924 | 20.42361 | 33183 ft | 486 kts | 67° |
| 2026-05-07 18:40 | 60.05148 | 20.55037 | 33183 ft | 485 kts | 67° |
| 2026-05-07 18:40 | 60.07383 | 20.67820 | 33178 ft | 485 kts | 67° |
| 2026-05-07 18:41 | 60.09232 | 20.78433 | 33184 ft | 485 kts | 67° |
| 2026-05-07 18:41 | 60.11445 | 20.91230 | 33181 ft | 485 kts | 67° |
| 2026-05-07 18:42 | 60.13649 | 21.04087 | 33144 ft | 488 kts | 68° |
| 2026-05-07 18:42 | 60.15845 | 21.17012 | 33130 ft | 490 kts | 68° |
| 2026-05-07 18:42 | 60.16938 | 21.23496 | 32916 ft | 486 kts | 68° |
| 2026-05-07 18:43 | 60.18018 | 21.29922 | 31864 ft | 486 kts | 68° |
| 2026-05-07 18:43 | 60.19093 | 21.36346 | 30957 ft | 482 kts | 68° |
| 2026-05-07 18:43 | 60.20129 | 21.42645 | 30050 ft | 479 kts | 71° |
| 2026-05-07 18:43 | 60.20883 | 21.49158 | 28988 ft | 476 kts | 75° |
| 2026-05-07 18:44 | 60.21567 | 21.55640 | 28060 ft | 471 kts | 75° |
| 2026-05-07 18:44 | 60.22239 | 21.62019 | 27638 ft | 460 kts | 76° |
| 2026-05-07 18:44 | 60.22895 | 21.68274 | 27247 ft | 455 kts | 76° |
| 2026-05-07 18:44 | 60.23542 | 21.74477 | 26830 ft | 452 kts | 76° |
| 2026-05-07 18:45 | 60.24182 | 21.80658 | 26412 ft | 449 kts | 76° |
| 2026-05-07 18:45 | 60.24818 | 21.86811 | 25993 ft | 447 kts | 76° |
| 2026-05-07 18:45 | 60.25447 | 21.92928 | 25550 ft | 445 kts | 76° |
| 2026-05-07 18:45 | 60.26071 | 21.99022 | 25137 ft | 444 kts | 76° |
| 2026-05-07 18:46 | 60.26682 | 22.05023 | 24732 ft | 442 kts | 76° |
| 2026-05-07 18:46 | 60.27297 | 22.11107 | 24595 ft | 432 kts | 76° |
| 2026-05-07 18:46 | 60.27876 | 22.16888 | 24480 ft | 422 kts | 76° |
| 2026-05-07 18:46 | 60.28455 | 22.22681 | 24027 ft | 422 kts | 77° |
| 2026-05-07 18:47 | 60.29035 | 22.28496 | 23496 ft | 424 kts | 77° |
| 2026-05-07 18:47 | 60.29614 | 22.34330 | 22986 ft | 423 kts | 77° |
| 2026-05-07 18:47 | 60.30188 | 22.40135 | 22492 ft | 421 kts | 77° |
| 2026-05-07 18:47 | 60.30758 | 22.45932 | 21989 ft | 420 kts | 77° |
| 2026-05-07 18:48 | 60.31325 | 22.51700 | 21553 ft | 419 kts | 76° |
| 2026-05-07 18:48 | 60.31889 | 22.57475 | 20974 ft | 420 kts | 76° |
| 2026-05-07 18:48 | 60.32446 | 22.63253 | 20492 ft | 418 kts | 76° |
| 2026-05-07 18:48 | 60.32994 | 22.68987 | 20069 ft | 414 kts | 76° |
| 2026-05-07 18:49 | 60.33536 | 22.74668 | 19627 ft | 411 kts | 77° |
| 2026-05-07 18:49 | 60.34075 | 22.80325 | 19199 ft | 408 kts | 77° |
| 2026-05-07 18:49 | 60.34605 | 22.85917 | 18825 ft | 404 kts | 77° |
| 2026-05-07 18:49 | 60.35130 | 22.91484 | 18410 ft | 400 kts | 77° |
| 2026-05-07 18:50 | 60.35647 | 22.97000 | 17910 ft | 398 kts | 77° |
| 2026-05-07 18:50 | 60.36154 | 23.02456 | 17466 ft | 394 kts | 77° |
| 2026-05-07 18:50 | 60.36651 | 23.07803 | 17072 ft | 389 kts | 77° |
| 2026-05-07 18:50 | 60.37149 | 23.13171 | 16633 ft | 386 kts | 77° |
| 2026-05-07 18:51 | 60.37638 | 23.18488 | 16178 ft | 383 kts | 77° |
| 2026-05-07 18:51 | 60.38121 | 23.23765 | 15755 ft | 380 kts | 77° |
| 2026-05-07 18:51 | 60.38605 | 23.29056 | 15343 ft | 376 kts | 77° |
| 2026-05-07 18:51 | 60.39069 | 23.34180 | 14938 ft | 373 kts | 77° |
| 2026-05-07 18:52 | 60.39448 | 23.39361 | 14543 ft | 371 kts | 81° |
| 2026-05-07 18:52 | 60.39724 | 23.44497 | 14138 ft | 359 kts | 82° |
| 2026-05-07 18:52 | 60.39935 | 23.49448 | 13720 ft | 347 kts | 83° |
| 2026-05-07 18:52 | 60.40122 | 23.54273 | 13264 ft | 341 kts | 83° |
| 2026-05-07 18:53 | 60.40312 | 23.59025 | 12826 ft | 336 kts | 83° |
| 2026-05-07 18:53 | 60.40510 | 23.63633 | 12407 ft | 331 kts | 83° |
| 2026-05-07 18:53 | 60.40723 | 23.68272 | 12035 ft | 329 kts | 83° |
| 2026-05-07 18:53 | 60.40937 | 23.72841 | 11804 ft | 323 kts | 83° |
| 2026-05-07 18:54 | 60.41150 | 23.77343 | 11502 ft | 319 kts | 83° |
| 2026-05-07 18:54 | 60.41359 | 23.81819 | 11035 ft | 321 kts | 83° |
| 2026-05-07 18:54 | 60.41569 | 23.86323 | 10549 ft | 323 kts | 83° |
| 2026-05-07 18:54 | 60.41776 | 23.90830 | 10197 ft | 320 kts | 83° |
| 2026-05-07 18:55 | 60.41977 | 23.95288 | 9845 ft | 316 kts | 84° |
| 2026-05-07 18:55 | 60.42171 | 23.99704 | 9459 ft | 313 kts | 84° |
| 2026-05-07 18:55 | 60.42362 | 24.04083 | 9061 ft | 311 kts | 84° |
| 2026-05-07 18:55 | 60.42551 | 24.08387 | 8672 ft | 309 kts | 84° |
| 2026-05-07 18:56 | 60.42741 | 24.12711 | 8299 ft | 306 kts | 84° |
| 2026-05-07 18:56 | 60.42928 | 24.16920 | 8141 ft | 292 kts | 84° |
| 2026-05-07 18:56 | 60.43107 | 24.20966 | 7838 ft | 285 kts | 84° |
| 2026-05-07 18:56 | 60.43280 | 24.24941 | 7412 ft | 283 kts | 84° |
| 2026-05-07 18:57 | 60.43449 | 24.28890 | 7017 ft | 280 kts | 84° |
| 2026-05-07 18:57 | 60.43611 | 24.32784 | 6680 ft | 275 kts | 83° |
| 2026-05-07 18:57 | 60.43769 | 24.36614 | 6293 ft | 271 kts | 83° |
| 2026-05-07 18:57 | 60.43920 | 24.40355 | 6056 ft | 262 kts | 83° |
| 2026-05-07 18:58 | 60.44068 | 24.44011 | 5730 ft | 259 kts | 83° |
| 2026-05-07 18:58 | 60.44218 | 24.47651 | 5438 ft | 258 kts | 83° |
| 2026-05-07 18:58 | 60.44365 | 24.51212 | 5150 ft | 256 kts | 83° |
| 2026-05-07 18:58 | 60.44512 | 24.54802 | 4853 ft | 255 kts | 82° |
| 2026-05-07 18:59 | 60.44657 | 24.58384 | 4535 ft | 254 kts | 82° |
| 2026-05-07 18:59 | 60.44800 | 24.61945 | 4272 ft | 251 kts | 82° |
| 2026-05-07 18:59 | 60.44936 | 24.65402 | 4139 ft | 242 kts | 82° |
| 2026-05-07 18:59 | 60.45063 | 24.68727 | 3949 ft | 230 kts | 82° |
| 2026-05-07 19:00 | 60.45186 | 24.71914 | 3464 ft | 225 kts | 82° |
| 2026-05-07 19:00 | 60.45309 | 24.75056 | 2943 ft | 223 kts | 82° |
| 2026-05-07 19:00 | 60.45430 | 24.78163 | 2450 ft | 225 kts | 82° |
| 2026-05-07 19:00 | 60.45398 | 24.81325 | 2143 ft | 227 kts | 102° |
| 2026-05-07 19:01 | 60.44635 | 24.84110 | 2026 ft | 230 kts | 134° |
| 2026-05-07 19:01 | 60.43301 | 24.85885 | 2039 ft | 229 kts | 153° |
| 2026-05-07 19:01 | 60.41863 | 24.87356 | 2035 ft | 233 kts | 153° |
| 2026-05-07 19:01 | 60.40427 | 24.88829 | 1832 ft | 226 kts | 153° |
| 2026-05-07 19:02 | 60.39060 | 24.90239 | 1547 ft | 214 kts | 153° |
| 2026-05-07 19:02 | 60.37792 | 24.91546 | 1268 ft | 194 kts | 153° |
| 2026-05-07 19:02 | 60.36652 | 24.92720 | 1038 ft | 176 kts | 154° |
| 2026-05-07 19:02 | 60.35604 | 24.93799 | 778 ft | 165 kts | 155° |
| 2026-05-07 19:03 | 60.34637 | 24.94795 | 576 ft | 148 kts | 155° |
| 2026-05-07 19:03 | 60.33751 | 24.95718 | 387 ft | 140 kts | 154° |
| 2026-05-07 19:03 | 60.32893 | 24.96591 | 205 ft | 138 kts | 155° |
| 2026-05-07 19:03 | 60.32154 | 24.97345 | 186 ft | 86 kts | 152° |
| 2026-05-07 19:04 | 60.31840 | 24.97663 | 193 ft | 35 kts | 156° |
| 2026-05-07 19:04 | 60.31689 | 24.97671 | 188 ft | 15 kts | 221° |
| 2026-05-07 19:04 | 60.31672 | 24.97621 | 188 ft | 0 kts | 244° |
| 2026-05-07 19:05 | 60.31671 | 24.97620 | 188 ft | 0 kts | 244° |
| 2026-05-07 19:05 | 60.31666 | 24.97598 | 188 ft | 3 kts | 244° |
| 2026-05-07 19:05 | 60.31646 | 24.97521 | 193 ft | 10 kts | 243° |
| 2026-05-07 19:06 | 60.31627 | 24.97415 | 196 ft | 8 kts | 275° |
| 2026-05-07 19:06 | 60.31760 | 24.97258 | 194 ft | 14 kts | 333° |
| 2026-05-07 19:06 | 60.31840 | 24.97176 | 193 ft | 8 kts | 333° |
| 2026-05-07 19:07 | 60.31848 | 24.97122 | 189 ft | 5 kts | 248° |
| 2026-05-07 19:07 | 60.31828 | 24.97044 | 188 ft | 6 kts | 242° |
| 2026-05-07 19:07 | 60.31825 | 24.97031 | 188 ft | 1 kts | 244° |